Time;durP1;ratioP1;P1;durP2;ratioP2;P2;SDS_P1;SDS_P2;PMS_P1;PMS_P2;Temp;Humidity;BMP_temperature;BMP_pressure;BME280_temperature;BME280_humidity;BME280_pressure;Samples;Min_cycle;Max_cycle;Signal;HPM_P1;HPM_P2
2021/07/25 00:00:37;;;;;;;101.30;61.60;;;;;;;;;;5055762;28;20442;-71
2021/07/25 00:03:04;;;;;;;99.47;62.33;;;;;;;;;;5056566;28;20450;-71
2021/07/25 00:05:33;;;;;;;97.50;60.10;;;;;;;;;;5055414;28;20927;-71
2021/07/25 00:08:00;;;;;;;100.10;63.87;;;;;;;;;;5055923;28;20479;-72
2021/07/25 00:10:27;;;;;;;101.70;63.70;;;;;;;;;;5055622;28;20442;-72
2021/07/25 00:12:55;;;;;;;103.63;62.83;;;;;;;;;;5055599;28;20438;-72
2021/07/25 00:15:22;;;;;;;91.70;59.30;;;;;;;;;;5055526;28;20442;-72
2021/07/25 00:17:49;;;;;;;111.93;67.60;;;;;;;;;;5055552;28;20457;-72
2021/07/25 00:20:17;;;;;;;97.80;60.43;;;;;;;;;;5055651;28;20449;-71
2021/07/25 00:22:45;;;;;;;102.13;63.33;;;;;;;;;;5055118;28;20442;-71
2021/07/25 00:25:18;;;;;;;93.20;61.40;;;;;;;;;;5055045;28;20925;-71
2021/07/25 00:27:49;;;;;;;101.30;61.87;;;;;;;;;;5055913;28;20443;-71
2021/07/25 00:30:16;;;;;;;95.83;64.00;;;;;;;;;;5055508;28;20432;-71
2021/07/25 00:32:43;;;;;;;95.10;61.30;;;;;;;;;;5055214;28;20954;-71
2021/07/25 00:35:11;;;;;;;87.80;60.43;;;;;;;;;;5054974;28;20924;-71
2021/07/25 00:37:42;;;;;;;85.97;58.20;;;;;;;;;;5054799;28;20529;-71
2021/07/25 00:40:12;;;;;;;83.47;58.20;;;;;;;;;;5055093;28;20447;-71
2021/07/25 00:42:40;;;;;;;90.43;57.67;;;;;;;;;;5055528;28;20463;-71
2021/07/25 00:45:08;;;;;;;102.90;60.80;;;;;;;;;;5055495;28;20442;-71
2021/07/25 00:47:36;;;;;;;88.27;58.57;;;;;;;;;;5055009;28;20451;-71
2021/07/25 00:50:03;;;;;;;89.60;58.00;;;;;;;;;;5054902;28;20492;-72
2021/07/25 00:52:31;;;;;;;79.93;57.40;;;;;;;;;;5055030;28;20439;-72
2021/07/25 00:54:59;;;;;;;87.10;54.37;;;;;;;;;;5054774;28;20779;-72
2021/07/25 00:57:27;;;;;;;79.40;56.03;;;;;;;;;;5054390;28;20446;-73
2021/07/25 00:59:54;;;;;;;83.53;55.27;;;;;;;;;;5054650;28;20483;-71
2021/07/25 01:02:22;;;;;;;72.60;53.20;;;;;;;;;;5054940;28;20449;-73
2021/07/25 01:04:53;;;;;;;80.37;54.30;;;;;;;;;;5054697;28;20881;-73
2021/07/25 01:07:22;;;;;;;81.93;54.60;;;;;;;;;;5054533;28;20480;-73
2021/07/25 01:09:51;;;;;;;81.97;54.90;;;;;;;;;;5054568;28;20454;-71
2021/07/25 01:12:19;;;;;;;81.30;54.90;;;;;;;;;;5054417;28;20763;-71
2021/07/25 01:14:49;;;;;;;97.20;60.93;;;;;;;;;;5054553;28;20452;-72
2021/07/25 01:17:30;;;;;;;87.67;56.40;;;;;;;;;;5054422;28;20500;-72
2021/07/25 01:19:58;;;;;;;89.60;55.93;;;;;;;;;;5053881;28;21014;-72
2021/07/25 01:22:26;;;;;;;77.53;54.63;;;;;;;;;;5054516;28;20461;-72
2021/07/25 01:24:54;;;;;;;87.00;58.10;;;;;;;;;;5054230;28;20443;-72
2021/07/25 01:27:23;;;;;;;95.77;57.37;;;;;;;;;;5054189;28;20438;-72
2021/07/25 01:29:51;;;;;;;91.97;56.27;;;;;;;;;;5053763;28;20512;-72
2021/07/25 01:32:18;;;;;;;89.30;57.17;;;;;;;;;;5054163;28;20438;-72
2021/07/25 01:34:46;;;;;;;91.10;55.37;;;;;;;;;;5053746;28;20453;-72
2021/07/25 01:37:15;;;;;;;93.80;58.70;;;;;;;;;;5054009;28;20550;-72
2021/07/25 01:39:43;;;;;;;89.87;57.73;;;;;;;;;;5053608;28;20843;-72
2021/07/25 01:42:10;;;;;;;95.10;58.30;;;;;;;;;;5054410;28;20452;-72
2021/07/25 01:44:37;;;;;;;99.40;61.40;;;;;;;;;;5054390;28;20443;-72
2021/07/25 01:47:05;;;;;;;95.93;60.93;;;;;;;;;;5053873;28;20449;-72
2021/07/25 01:49:32;;;;;;;91.53;57.50;;;;;;;;;;5053504;28;20441;-72
2021/07/25 01:51:59;;;;;;;93.43;59.10;;;;;;;;;;5053811;28;20452;-72
2021/07/25 01:54:28;;;;;;;83.70;55.73;;;;;;;;;;5054603;28;20440;-72
2021/07/25 01:56:55;;;;;;;83.47;57.13;;;;;;;;;;5053941;28;20818;-72
2021/07/25 01:59:22;;;;;;;95.23;58.87;;;;;;;;;;5054056;28;20517;-72
2021/07/25 02:01:49;;;;;;;105.67;61.07;;;;;;;;;;5053700;28;20525;-72
2021/07/25 02:04:16;;;;;;;96.90;58.57;;;;;;;;;;5053835;28;20452;-72
2021/07/25 02:06:43;;;;;;;93.43;56.57;;;;;;;;;;5054214;28;20478;-72
2021/07/25 02:09:12;;;;;;;97.73;56.10;;;;;;;;;;5054412;28;20433;-72
2021/07/25 02:11:41;;;;;;;92.90;55.40;;;;;;;;;;5053540;28;20495;-72
2021/07/25 02:14:09;;;;;;;85.30;55.80;;;;;;;;;;5054068;28;20446;-72
2021/07/25 02:16:37;;;;;;;86.57;54.70;;;;;;;;;;5055276;28;20446;-72
2021/07/25 02:19:04;;;;;;;87.73;54.57;;;;;;;;;;5060025;28;20484;-72
2021/07/25 02:21:31;;;;;;;88.00;55.33;;;;;;;;;;5059811;28;20445;-72
2021/07/25 02:23:58;;;;;;;85.93;55.90;;;;;;;;;;5060630;28;20444;-72
2021/07/25 02:26:26;;;;;;;92.47;55.67;;;;;;;;;;5060067;28;20445;-71
2021/07/25 02:28:54;;;;;;;95.50;55.40;;;;;;;;;;5060076;28;20437;-71
2021/07/25 02:31:21;;;;;;;87.13;54.30;;;;;;;;;;5060175;28;20442;-72
2021/07/25 02:33:49;;;;;;;84.50;54.90;;;;;;;;;;5060005;28;20449;-72
2021/07/25 02:36:16;;;;;;;85.93;54.83;;;;;;;;;;5060106;28;20532;-72
2021/07/25 02:38:43;;;;;;;85.87;54.00;;;;;;;;;;5059901;28;20608;-72
2021/07/25 02:41:10;;;;;;;91.90;58.07;;;;;;;;;;5059986;28;20793;-72
2021/07/25 02:43:37;;;;;;;88.97;53.87;;;;;;;;;;5059964;28;20450;-72
2021/07/25 02:46:06;;;;;;;80.83;51.43;;;;;;;;;;5060097;28;20438;-72
2021/07/25 02:48:33;;;;;;;85.30;53.77;;;;;;;;;;5059456;28;20451;-72
2021/07/25 02:51:01;;;;;;;88.87;53.90;;;;;;;;;;5060199;28;20800;-71
2021/07/25 02:53:28;;;;;;;80.40;54.30;;;;;;;;;;5060050;28;20448;-71
2021/07/25 02:55:56;;;;;;;80.43;55.13;;;;;;;;;;5059547;28;20952;-72
2021/07/25 02:58:23;;;;;;;78.10;51.63;;;;;;;;;;5059915;28;20433;-72
2021/07/25 03:00:50;;;;;;;91.33;56.80;;;;;;;;;;5059751;28;20501;-72
2021/07/25 03:03:19;;;;;;;81.97;52.67;;;;;;;;;;5060064;28;20447;-71
2021/07/25 03:05:47;;;;;;;84.27;53.77;;;;;;;;;;5059857;28;20491;-71
2021/07/25 03:08:14;;;;;;;87.90;52.67;;;;;;;;;;5059237;28;20482;-71
2021/07/25 03:10:41;;;;;;;74.23;49.90;;;;;;;;;;5059798;28;20551;-71
2021/07/25 03:13:08;;;;;;;89.33;53.37;;;;;;;;;;5060143;28;20444;-70
2021/07/25 03:15:35;;;;;;;79.27;51.30;;;;;;;;;;5059682;28;20445;-71
2021/07/25 03:18:03;;;;;;;85.67;52.37;;;;;;;;;;5059423;28;20451;-71
2021/07/25 03:20:31;;;;;;;70.83;50.13;;;;;;;;;;5059522;28;20480;-71
2021/07/25 03:22:58;;;;;;;78.37;48.13;;;;;;;;;;5059725;28;20443;-71
2021/07/25 03:25:25;;;;;;;80.70;52.60;;;;;;;;;;5059572;28;20441;-71
2021/07/25 03:27:53;;;;;;;91.00;52.40;;;;;;;;;;5058702;28;20445;-71
2021/07/25 03:30:20;;;;;;;82.20;51.80;;;;;;;;;;5055568;28;20950;-70
2021/07/25 03:32:47;;;;;;;80.00;49.50;;;;;;;;;;5056395;28;20443;-70
2021/07/25 03:35:14;;;;;;;74.30;48.50;;;;;;;;;;5056284;28;20439;-70
2021/07/25 03:37:45;;;;;;;75.77;49.77;;;;;;;;;;5056267;28;20477;-70
2021/07/25 03:40:13;;;;;;;85.00;49.97;;;;;;;;;;5056800;28;20474;-70
2021/07/25 03:42:40;;;;;;;75.57;47.60;;;;;;;;;;5056404;28;20788;-70
2021/07/25 03:45:08;;;;;;;74.50;49.37;;;;;;;;;;5056100;28;20500;-70
2021/07/25 03:47:35;;;;;;;75.90;48.10;;;;;;;;;;5056239;28;20446;-70
2021/07/25 03:50:02;;;;;;;75.67;48.00;;;;;;;;;;5056659;28;20458;-70
2021/07/25 03:52:30;;;;;;;75.47;49.67;;;;;;;;;;5055983;28;20443;-70
2021/07/25 03:54:58;;;;;;;71.50;46.87;;;;;;;;;;5055688;28;20919;-70
2021/07/25 03:57:26;;;;;;;65.57;45.27;;;;;;;;;;5055895;28;20442;-70
2021/07/25 03:59:53;;;;;;;77.43;47.17;;;;;;;;;;5055778;28;20473;-70
2021/07/25 04:02:20;;;;;;;70.17;45.70;;;;;;;;;;5055818;28;20445;-70
2021/07/25 04:04:48;;;;;;;78.50;48.67;;;;;;;;;;5056126;28;20442;-70
2021/07/25 04:07:15;;;;;;;66.13;44.67;;;;;;;;;;5056245;28;20469;-70
2021/07/25 04:09:42;;;;;;;68.30;46.40;;;;;;;;;;5055790;28;20470;-70
2021/07/25 04:12:11;;;;;;;70.50;46.20;;;;;;;;;;5056083;28;20454;-70
2021/07/25 04:14:38;;;;;;;65.57;45.07;;;;;;;;;;5055276;28;20939;-70
2021/07/25 04:17:06;;;;;;;75.07;46.80;;;;;;;;;;5055462;28;20867;-70
2021/07/25 04:19:33;;;;;;;72.07;46.20;;;;;;;;;;5055503;28;20520;-70
2021/07/25 04:22:00;;;;;;;69.80;45.10;;;;;;;;;;5055464;28;20450;-70
2021/07/25 04:24:27;;;;;;;69.63;45.53;;;;;;;;;;5055101;28;20442;-70
2021/07/25 04:26:55;;;;;;;64.20;43.67;;;;;;;;;;5055066;28;20441;-70
2021/07/25 04:29:24;;;;;;;66.63;41.20;;;;;;;;;;5055017;28;20958;-70
2021/07/25 04:31:51;;;;;;;62.43;41.77;;;;;;;;;;5055298;28;20454;-70
2021/07/25 04:34:18;;;;;;;66.40;41.77;;;;;;;;;;5055219;28;20445;-70
2021/07/25 04:36:46;;;;;;;64.57;44.17;;;;;;;;;;5055200;28;20953;-70
2021/07/25 04:39:13;;;;;;;62.00;44.00;;;;;;;;;;5054781;28;20954;-69
2021/07/25 04:41:42;;;;;;;63.23;42.20;;;;;;;;;;5054960;28;20450;-69
2021/07/25 04:44:15;;;;;;;67.97;40.80;;;;;;;;;;5054971;28;20446;-70
2021/07/25 04:46:47;;;;;;;59.63;40.77;;;;;;;;;;5054679;28;20943;-70
2021/07/25 04:49:14;;;;;;;56.70;41.53;;;;;;;;;;5055440;28;20427;-71
2021/07/25 04:51:42;;;;;;;60.03;39.70;;;;;;;;;;5054866;28;20450;-71
2021/07/25 04:54:11;;;;;;;56.47;41.70;;;;;;;;;;5055977;28;20443;-72
2021/07/25 04:56:43;;;;;;;61.67;40.30;;;;;;;;;;5064011;28;20454;-71
2021/07/25 04:59:14;;;;;;;59.00;40.83;;;;;;;;;;5075135;28;20436;-71
2021/07/25 05:01:46;;;;;;;57.23;36.53;;;;;;;;;;5095126;28;20422;-71
2021/07/25 05:04:15;;;;;;;52.87;37.90;;;;;;;;;;5095219;28;20437;-71
2021/07/25 05:06:42;;;;;;;54.67;39.00;;;;;;;;;;5094261;28;20465;-71
2021/07/25 05:09:10;;;;;;;59.07;38.63;;;;;;;;;;5095248;28;20433;-71
2021/07/25 05:11:43;;;;;;;50.27;37.90;;;;;;;;;;5094384;28;20444;-71
2021/07/25 05:14:11;;;;;;;56.53;39.20;;;;;;;;;;5095443;28;20516;-71
2021/07/25 05:16:41;;;;;;;55.27;40.00;;;;;;;;;;5095063;28;20914;-71
2021/07/25 05:19:17;;;;;;;59.40;40.00;;;;;;;;;;5094502;28;20448;-71
2021/07/25 05:21:50;;;;;;;57.53;38.80;;;;;;;;;;5094676;28;20824;-71
2021/07/25 05:24:18;;;;;;;54.80;40.43;;;;;;;;;;5094281;28;20503;-71
2021/07/25 05:26:48;;;;;;;49.20;36.80;;;;;;;;;;5094046;28;20440;-71
2021/07/25 05:29:19;;;;;;;50.60;38.10;;;;;;;;;;5094326;28;20432;-71
2021/07/25 05:31:47;;;;;;;49.60;36.50;;;;;;;;;;5095112;28;20422;-71
2021/07/25 05:34:14;;;;;;;50.97;35.80;;;;;;;;;;5094298;28;20433;-71
2021/07/25 05:36:41;;;;;;;45.50;35.13;;;;;;;;;;5093978;28;20638;-71
2021/07/25 05:39:09;;;;;;;52.50;37.07;;;;;;;;;;5093888;28;20448;-71
2021/07/25 05:41:37;;;;;;;56.07;36.10;;;;;;;;;;5094152;28;20494;-71
2021/07/25 05:44:04;;;;;;;55.77;36.10;;;;;;;;;;5093793;28;20446;-72
2021/07/25 05:46:31;;;;;;;48.97;36.50;;;;;;;;;;5093686;28;20957;-71
2021/07/25 05:48:58;;;;;;;42.80;34.27;;;;;;;;;;5094281;28;20437;-71
2021/07/25 05:51:26;;;;;;;50.67;33.97;;;;;;;;;;5093341;28;20456;-71
2021/07/25 05:53:53;;;;;;;54.23;34.67;;;;;;;;;;5094031;28;20477;-72
2021/07/25 05:56:22;;;;;;;48.57;33.53;;;;;;;;;;5093631;28;20450;-71
2021/07/25 05:58:49;;;;;;;47.07;33.17;;;;;;;;;;5093831;28;20536;-71
2021/07/25 06:01:16;;;;;;;36.80;30.43;;;;;;;;;;5093842;28;20484;-72
2021/07/25 06:03:43;;;;;;;40.80;33.57;;;;;;;;;;5094030;28;20445;-71
2021/07/25 06:06:10;;;;;;;40.87;32.23;;;;;;;;;;5094060;28;20447;-71
2021/07/25 06:08:37;;;;;;;37.50;31.47;;;;;;;;;;5093628;28;20430;-71
2021/07/25 06:11:05;;;;;;;44.20;32.73;;;;;;;;;;5093590;28;20531;-71
2021/07/25 06:13:33;;;;;;;41.97;30.77;;;;;;;;;;5092913;28;20445;-72
2021/07/25 06:16:00;;;;;;;43.53;29.73;;;;;;;;;;5093533;28;20452;-71
2021/07/25 06:18:27;;;;;;;37.03;29.20;;;;;;;;;;5094369;28;20445;-71
2021/07/25 06:20:55;;;;;;;37.70;28.37;;;;;;;;;;5093129;28;20851;-71
2021/07/25 06:23:22;;;;;;;37.17;29.83;;;;;;;;;;5093636;28;20445;-72
2021/07/25 06:25:49;;;;;;;37.97;28.17;;;;;;;;;;5093860;28;20537;-71
2021/07/25 06:28:17;;;;;;;32.80;26.53;;;;;;;;;;5092534;28;20842;-71
2021/07/25 06:30:45;;;;;;;43.53;28.60;;;;;;;;;;5092929;28;20441;-71
2021/07/25 06:33:12;;;;;;;35.33;25.07;;;;;;;;;;5093536;28;20457;-71
2021/07/25 06:35:40;;;;;;;37.33;26.00;;;;;;;;;;5093542;28;20443;-71
2021/07/25 06:38:08;;;;;;;34.90;26.50;;;;;;;;;;5093355;28;20442;-71
2021/07/25 06:40:36;;;;;;;30.80;25.67;;;;;;;;;;5093658;28;20520;-71
2021/07/25 06:43:04;;;;;;;33.17;25.27;;;;;;;;;;5093393;28;20810;-71
2021/07/25 06:45:31;;;;;;;32.10;26.23;;;;;;;;;;5093083;28;20951;-71
2021/07/25 06:48:00;;;;;;;37.50;25.37;;;;;;;;;;5092892;28;20931;-71
2021/07/25 06:50:29;;;;;;;32.20;24.53;;;;;;;;;;5093469;28;20450;-72
2021/07/25 06:52:56;;;;;;;34.60;26.13;;;;;;;;;;5093029;28;20452;-70
2021/07/25 06:55:24;;;;;;;33.00;24.37;;;;;;;;;;5093398;28;20446;-70
2021/07/25 06:57:52;;;;;;;36.70;25.57;;;;;;;;;;5092996;28;20448;-70
2021/07/25 07:00:19;;;;;;;29.73;25.23;;;;;;;;;;5093272;28;20480;-70
2021/07/25 07:02:50;;;;;;;31.57;24.30;;;;;;;;;;5094021;28;20450;-70
2021/07/25 07:05:19;;;;;;;36.23;26.50;;;;;;;;;;5097361;28;20784;-71
2021/07/25 07:07:47;;;;;;;28.90;24.43;;;;;;;;;;5097713;28;20466;-72
2021/07/25 07:10:15;;;;;;;32.67;26.07;;;;;;;;;;5097863;28;20446;-72
2021/07/25 07:12:42;;;;;;;32.67;26.40;;;;;;;;;;5097181;28;20441;-72
2021/07/25 07:15:09;;;;;;;31.63;25.77;;;;;;;;;;5097031;28;20439;-71
2021/07/25 07:17:38;;;;;;;34.07;27.87;;;;;;;;;;5096996;28;20453;-72
2021/07/25 07:20:06;;;;;;;32.77;27.93;;;;;;;;;;5096613;28;20443;-72
2021/07/25 07:22:35;;;;;;;38.53;27.80;;;;;;;;;;5096559;28;20955;-71
2021/07/25 07:25:03;;;;;;;34.50;29.50;;;;;;;;;;5096757;28;20456;-72
2021/07/25 07:27:31;;;;;;;34.30;30.07;;;;;;;;;;5096642;28;20563;-72
2021/07/25 07:29:58;;;;;;;38.23;30.47;;;;;;;;;;5096699;28;20529;-72
2021/07/25 07:32:25;;;;;;;41.20;29.87;;;;;;;;;;5096647;28;20533;-72
2021/07/25 07:34:53;;;;;;;31.50;27.20;;;;;;;;;;5096506;28;20442;-72
2021/07/25 07:37:20;;;;;;;35.57;28.63;;;;;;;;;;5096542;28;20444;-72
2021/07/25 07:39:48;;;;;;;38.17;31.23;;;;;;;;;;5096395;28;20439;-73
2021/07/25 07:42:16;;;;;;;36.63;32.73;;;;;;;;;;5096395;28;20496;-72
2021/07/25 07:44:43;;;;;;;37.73;32.20;;;;;;;;;;5096614;28;20441;-72
2021/07/25 07:47:10;;;;;;;42.87;31.60;;;;;;;;;;5097321;28;20786;-72
2021/07/25 07:49:38;;;;;;;37.67;32.17;;;;;;;;;;5096272;28;20490;-72
2021/07/25 07:52:06;;;;;;;44.10;31.33;;;;;;;;;;5096250;28;20460;-72
2021/07/25 07:54:33;;;;;;;40.23;31.93;;;;;;;;;;5095836;28;20529;-72
2021/07/25 07:57:02;;;;;;;37.13;31.53;;;;;;;;;;5097007;28;20528;-72
2021/07/25 07:59:29;;;;;;;35.20;31.33;;;;;;;;;;5096069;28;20436;-72
2021/07/25 08:01:56;;;;;;;37.10;32.47;;;;;;;;;;5095916;28;20516;-72
2021/07/25 08:04:23;;;;;;;35.03;31.10;;;;;;;;;;5096400;28;20439;-72
2021/07/25 08:06:50;;;;;;;35.70;30.87;;;;;;;;;;5095659;28;20553;-72
2021/07/25 08:09:18;;;;;;;36.00;32.20;;;;;;;;;;5095849;28;20513;-72
2021/07/25 08:11:45;;;;;;;36.50;32.70;;;;;;;;;;5095773;28;20436;-72
2021/07/25 08:14:14;;;;;;;36.80;32.93;;;;;;;;;;5095137;28;20427;-72
2021/07/25 08:16:42;;;;;;;40.03;31.37;;;;;;;;;;5095618;28;20456;-72
2021/07/25 08:19:09;;;;;;;36.17;32.43;;;;;;;;;;5095666;28;20929;-72
2021/07/25 08:21:37;;;;;;;40.73;33.70;;;;;;;;;;5095209;28;21002;-73
2021/07/25 08:24:04;;;;;;;37.47;33.47;;;;;;;;;;5095907;28;20446;-71
2021/07/25 08:26:31;;;;;;;36.40;32.63;;;;;;;;;;5095565;28;20526;-72
2021/07/25 08:28:58;;;;;;;36.83;31.47;;;;;;;;;;5096188;28;20801;-72
2021/07/25 08:31:27;;;;;;;35.43;31.70;;;;;;;;;;5095719;28;20447;-72
2021/07/25 08:33:54;;;;;;;35.67;31.77;;;;;;;;;;5095147;28;20447;-77
2021/07/25 08:36:22;;;;;;;33.87;30.23;;;;;;;;;;5095392;28;20797;-78
2021/07/25 08:38:49;;;;;;;34.40;30.80;;;;;;;;;;5095805;28;20502;-75
2021/07/25 08:41:18;;;;;;;31.77;28.57;;;;;;;;;;5073559;28;20483;-75
2021/07/25 08:43:46;;;;;;;32.43;28.60;;;;;;;;;;5071023;28;20449;-76
2021/07/25 08:46:15;;;;;;;32.90;29.10;;;;;;;;;;5074773;28;20454;-76
2021/07/25 08:48:48;;;;;;;32.17;26.30;;;;;;;;;;5074567;28;20540;-76
2021/07/25 08:51:19;;;;;;;29.07;25.83;;;;;;;;;;5075164;28;20432;-75
2021/07/25 08:53:51;;;;;;;28.57;25.57;;;;;;;;;;5074532;28;20434;-76
2021/07/25 08:56:19;;;;;;;27.80;24.93;;;;;;;;;;5075200;28;20429;-76
2021/07/25 08:58:48;;;;;;;28.43;23.63;;;;;;;;;;5074422;28;20494;-75
2021/07/25 09:01:15;;;;;;;26.47;23.87;;;;;;;;;;5074341;28;20988;-78
2021/07/25 09:03:43;;;;;;;21.53;19.37;;;;;;;;;;5074572;28;20449;-76
2021/07/25 09:06:12;;;;;;;23.03;19.47;;;;;;;;;;5074047;28;20472;-75
2021/07/25 09:08:40;;;;;;;18.27;16.57;;;;;;;;;;5075231;28;20431;-76
2021/07/25 09:11:08;;;;;;;20.70;16.80;;;;;;;;;;5074058;28;20450;-76
2021/07/25 09:13:35;;;;;;;17.63;15.67;;;;;;;;;;5074378;28;20455;-76
2021/07/25 09:16:02;;;;;;;22.07;17.53;;;;;;;;;;5074291;28;20844;-77
2021/07/25 09:18:29;;;;;;;19.73;17.63;;;;;;;;;;5074499;28;20448;-76
2021/07/25 09:20:56;;;;;;;19.63;17.03;;;;;;;;;;5074265;28;20503;-77
2021/07/25 09:23:27;;;;;;;17.43;15.63;;;;;;;;;;5074313;28;20441;-77
2021/07/25 09:25:55;;;;;;;17.97;16.10;;;;;;;;;;5073567;28;20440;-77
2021/07/25 09:28:27;;;;;;;20.17;16.67;;;;;;;;;;5074409;28;20551;-76
2021/07/25 09:30:54;;;;;;;16.73;14.97;;;;;;;;;;5073892;28;20940;-79
2021/07/25 09:33:26;;;;;;;20.20;18.07;;;;;;;;;;5073979;28;20445;-79
2021/07/25 09:35:53;;;;;;;18.40;16.47;;;;;;;;;;5073814;28;20448;-79
2021/07/25 09:38:21;;;;;;;18.83;17.03;;;;;;;;;;5074037;28;20463;-78
2021/07/25 09:40:50;;;;;;;22.13;16.80;;;;;;;;;;5083255;28;20454;-79
2021/07/25 09:43:20;;;;;;;21.40;17.13;;;;;;;;;;5093814;28;20530;-79
2021/07/25 09:45:58;;;;;;;17.27;15.57;;;;;;;;;;5093860;28;20979;-78
2021/07/25 09:48:26;;;;;;;16.03;14.53;;;;;;;;;;5094418;28;20443;-78
2021/07/25 09:50:53;;;;;;;13.93;12.47;;;;;;;;;;5093778;28;20960;-78
2021/07/25 09:53:21;;;;;;;13.47;12.17;;;;;;;;;;5094189;28;20513;-77
2021/07/25 09:55:52;;;;;;;12.90;11.60;;;;;;;;;;5088047;28;20521;-79
2021/07/25 09:58:33;;;;;;;11.70;10.60;;;;;;;;;;5087250;28;20907;-78
2021/07/25 10:01:00;;;;;;;12.80;11.60;;;;;;;;;;5075457;28;20433;-78
2021/07/25 10:03:32;;;;;;;11.47;10.23;;;;;;;;;;5073747;28;20512;-76
2021/07/25 10:06:00;;;;;;;12.63;11.10;;;;;;;;;;5073323;28;20432;-78
2021/07/25 10:08:27;;;;;;;13.23;10.90;;;;;;;;;;5074024;28;20472;-79
2021/07/25 10:10:57;;;;;;;11.53;10.30;;;;;;;;;;5083832;28;20933;-77
2021/07/25 10:13:25;;;;;;;13.43;11.70;;;;;;;;;;5093900;28;20493;-77
2021/07/25 10:15:55;;;;;;;13.90;12.43;;;;;;;;;;5093447;28;20991;-77
2021/07/25 10:18:23;;;;;;;10.90;9.90;;;;;;;;;;5093305;28;21006;-77
2021/07/25 10:20:51;;;;;;;11.27;10.27;;;;;;;;;;5093322;28;20435;-78
2021/07/25 10:23:19;;;;;;;9.90;8.93;;;;;;;;;;5093478;28;20859;-77
2021/07/25 10:25:50;;;;;;;11.90;9.43;;;;;;;;;;5093604;28;20527;-78
2021/07/25 10:28:19;;;;;;;10.67;9.57;;;;;;;;;;5093833;28;20428;-78
2021/07/25 10:30:47;;;;;;;10.63;9.63;;;;;;;;;;5093511;28;20496;-78
2021/07/25 10:33:16;;;;;;;9.93;8.90;;;;;;;;;;5093884;28;20947;-78
2021/07/25 10:35:44;;;;;;;11.37;7.90;;;;;;;;;;5093865;28;20502;-79
2021/07/25 10:38:11;;;;;;;10.07;8.30;;;;;;;;;;5095074;28;20452;-79
2021/07/25 10:40:39;;;;;;;9.00;8.10;;;;;;;;;;5097412;28;20526;-78
2021/07/25 10:43:07;;;;;;;8.03;7.13;;;;;;;;;;5097478;28;20478;-79
2021/07/25 10:45:36;;;;;;;8.13;7.10;;;;;;;;;;5097486;28;20520;-76
2021/07/25 10:48:13;;;;;;;7.23;6.53;;;;;;;;;;5098262;28;20454;-76
2021/07/25 10:50:41;;;;;;;8.20;7.40;;;;;;;;;;5097863;28;20444;-77
2021/07/25 10:53:08;;;;;;;8.00;7.20;;;;;;;;;;5097415;28;20538;-78
2021/07/25 10:55:45;;;;;;;6.50;5.90;;;;;;;;;;5097327;28;20437;-77
2021/07/25 10:58:12;;;;;;;7.70;6.70;;;;;;;;;;5097144;28;20944;-76
2021/07/25 11:00:42;;;;;;;6.83;6.23;;;;;;;;;;5096952;28;20474;-77
2021/07/25 11:03:10;;;;;;;9.83;6.97;;;;;;;;;;5096754;28;20473;-76
2021/07/25 11:06:05;;;;;;;6.50;5.90;;;;;;;;;;5096870;28;20953;-77
2021/07/25 11:08:32;;;;;;;7.63;6.30;;;;;;;;;;5097046;28;20452;-77
2021/07/25 11:11:00;;;;;;;6.10;5.23;;;;;;;;;;5097212;28;20786;-78
2021/07/25 11:13:39;;;;;;;6.57;5.93;;;;;;;;;;5096715;28;20481;-77
2021/07/25 11:16:21;;;;;;;6.87;6.07;;;;;;;;;;5096727;28;20921;-77
2021/07/25 11:18:50;;;;;;;10.27;5.60;;;;;;;;;;5096628;28;20804;-76
2021/07/25 11:21:31;;;;;;;6.40;4.90;;;;;;;;;;5096446;28;20445;-76
2021/07/25 11:23:59;;;;;;;8.43;4.53;;;;;;;;;;5097307;28;20834;-76
2021/07/25 11:26:43;;;;;;;8.40;5.33;;;;;;;;;;5096706;28;20525;-77
2021/07/25 11:29:12;;;;;;;6.67;5.93;;;;;;;;;;5097346;28;20765;-78
2021/07/25 11:31:43;;;;;;;8.07;5.77;;;;;;;;;;5096299;28;20447;-77
2021/07/25 11:34:13;;;;;;;9.83;5.80;;;;;;;;;;5097209;28;20432;-78
2021/07/25 11:36:41;;;;;;;8.17;4.90;;;;;;;;;;5096585;28;20449;-78
2021/07/25 11:39:08;;;;;;;8.33;5.50;;;;;;;;;;5097528;28;20442;-77
2021/07/25 11:41:37;;;;;;;6.23;5.43;;;;;;;;;;5096383;28;20447;-79
2021/07/25 11:44:05;;;;;;;7.17;4.70;;;;;;;;;;5096436;28;20461;-79
2021/07/25 11:46:34;;;;;;;5.30;4.33;;;;;;;;;;5096249;28;20522;-79
2021/07/25 11:49:05;;;;;;;8.60;5.10;;;;;;;;;;5074767;28;20453;-81
2021/07/25 11:51:34;;;;;;;7.73;5.77;;;;;;;;;;5059437;28;20445;-80
2021/07/25 11:54:01;;;;;;;7.47;5.20;;;;;;;;;;5059766;28;20448;-79
2021/07/25 11:56:29;;;;;;;5.83;4.50;;;;;;;;;;5076066;28;20524;-82
2021/07/25 11:58:59;;;;;;;9.40;4.90;;;;;;;;;;5076122;28;20450;-79
2021/07/25 12:01:27;;;;;;;8.07;5.10;;;;;;;;;;5075424;28;20940;-78
2021/07/25 12:03:54;;;;;;;5.43;5.03;;;;;;;;;;5075820;28;20482;-81
2021/07/25 12:06:21;;;;;;;6.43;4.70;;;;;;;;;;5075608;28;20447;-80
2021/07/25 12:09:09;;;;;;;5.07;4.57;;;;;;;;;;5076062;28;20481;-79
2021/07/25 12:11:36;;;;;;;6.60;4.30;;;;;;;;;;5075689;28;20438;-79
2021/07/25 12:14:04;;;;;;;6.80;5.63;;;;;;;;;;5075330;28;20962;-78
2021/07/25 12:16:48;;;;;;;5.70;4.83;;;;;;;;;;5075583;28;20444;-79
2021/07/25 12:19:16;;;;;;;5.80;4.80;;;;;;;;;;5075554;28;20537;-77
2021/07/25 12:21:44;;;;;;;7.37;4.97;;;;;;;;;;5075442;28;20453;-78
2021/07/25 12:24:28;;;;;;;5.10;4.60;;;;;;;;;;5075526;28;20443;-77
2021/07/25 12:26:56;;;;;;;7.03;5.40;;;;;;;;;;5075263;28;20966;-77
2021/07/25 12:29:36;;;;;;;4.57;4.20;;;;;;;;;;5075548;28;20498;-77
2021/07/25 12:32:18;;;;;;;5.20;4.80;;;;;;;;;;5075203;28;20446;-77
2021/07/25 12:34:45;;;;;;;5.00;4.50;;;;;;;;;;5076167;28;20734;-78
2021/07/25 12:37:25;;;;;;;4.80;4.33;;;;;;;;;;5075115;28;20480;-76
2021/07/25 12:40:05;;;;;;;5.20;3.87;;;;;;;;;;5075708;28;20428;-78
2021/07/25 12:42:39;;;;;;;6.83;3.90;;;;;;;;;;5075463;28;20469;-76
2021/07/25 12:45:26;;;;;;;4.20;3.80;;;;;;;;;;5075012;28;20467;-77
2021/07/25 12:48:09;;;;;;;6.80;4.00;;;;;;;;;;5079447;28;20439;-78
2021/07/25 12:50:46;;;;;;;3.80;3.50;;;;;;;;;;5095179;28;20495;-76
2021/07/25 12:53:17;;;;;;;5.70;3.80;;;;;;;;;;5095365;28;20533;-75
2021/07/25 12:55:47;;;;;;;9.17;4.40;;;;;;;;;;5094927;28;20425;-77
2021/07/25 12:58:14;;;;;;;4.63;4.33;;;;;;;;;;5095021;28;20441;-78
2021/07/25 13:01:07;;;;;;;4.20;3.63;;;;;;;;;;5092612;28;20446;-76
2021/07/25 13:03:46;;;;;;;4.30;3.80;;;;;;;;;;5094436;28;20946;-78
2021/07/25 13:06:13;;;;;;;3.03;2.70;;;;;;;;;;5094432;28;20909;-76
2021/07/25 13:08:41;;;;;;;4.53;4.13;;;;;;;;;;5094832;28;20429;-76
2021/07/25 13:11:10;;;;;;;4.07;3.67;;;;;;;;;;5094800;28;20445;-75
2021/07/25 13:13:37;;;;;;;3.53;3.23;;;;;;;;;;5094729;28;20418;-76
2021/07/25 13:16:05;;;;;;;5.33;4.30;;;;;;;;;;5094632;28;20444;-78
2021/07/25 13:18:33;;;;;;;4.17;3.77;;;;;;;;;;5094277;28;20501;-76
2021/07/25 13:21:00;;;;;;;4.40;3.90;;;;;;;;;;5095064;28;20443;-76
2021/07/25 13:23:27;;;;;;;4.13;3.83;;;;;;;;;;5094487;28;20884;-76
2021/07/25 13:25:54;;;;;;;5.67;3.73;;;;;;;;;;5094534;28;20446;-77
2021/07/25 13:28:23;;;;;;;8.07;4.67;;;;;;;;;;5094125;28;20417;-77
2021/07/25 13:30:50;;;;;;;4.00;3.60;;;;;;;;;;5094311;28;20508;-77
2021/07/25 13:33:17;;;;;;;4.40;4.00;;;;;;;;;;5094521;28;20500;-78
2021/07/25 13:35:45;;;;;;;4.77;4.00;;;;;;;;;;5094133;28;20446;-77
2021/07/25 13:38:12;;;;;;;3.87;3.40;;;;;;;;;;5094289;28;20522;-77
2021/07/25 13:40:39;;;;;;;5.60;3.60;;;;;;;;;;5094168;28;20537;-79
2021/07/25 13:43:11;;;;;;;3.50;3.20;;;;;;;;;;5094631;28;20549;-78
2021/07/25 13:45:42;;;;;;;5.53;4.20;;;;;;;;;;5094141;28;20439;-77
2021/07/25 13:48:10;;;;;;;5.10;3.60;;;;;;;;;;5094630;28;20426;-78
2021/07/25 13:50:37;;;;;;;3.87;3.47;;;;;;;;;;5094283;28;20439;-79
2021/07/25 13:53:05;;;;;;;4.53;4.13;;;;;;;;;;5093790;28;20438;-78
2021/07/25 13:55:33;;;;;;;3.90;3.60;;;;;;;;;;5093994;28;20422;-78
2021/07/25 13:58:00;;;;;;;6.30;4.20;;;;;;;;;;5094272;28;20763;-75
2021/07/25 14:00:28;;;;;;;6.57;3.80;;;;;;;;;;5093475;28;20984;-78
2021/07/25 14:03:00;;;;;;;4.43;4.03;;;;;;;;;;5093834;28;20471;-78
2021/07/25 14:05:27;;;;;;;5.50;3.73;;;;;;;;;;5094228;28;20912;-78
2021/07/25 14:07:55;;;;;;;4.87;3.77;;;;;;;;;;5094005;28;20476;-77
2021/07/25 14:10:22;;;;;;;3.53;3.20;;;;;;;;;;5094070;28;20532;-78
2021/07/25 14:12:49;;;;;;;4.07;3.77;;;;;;;;;;5093419;28;20443;-78
2021/07/25 14:15:16;;;;;;;4.80;3.50;;;;;;;;;;5094103;28;20449;-79
2021/07/25 14:17:43;;;;;;;8.70;4.17;;;;;;;;;;5094952;28;20904;-79
2021/07/25 14:20:13;;;;;;;3.40;3.10;;;;;;;;;;5093761;28;20425;-78
2021/07/25 14:22:41;;;;;;;3.20;2.90;;;;;;;;;;5071977;28;20452;-80
2021/07/25 14:25:09;;;;;;;4.10;2.83;;;;;;;;;;5056269;28;20445;-79
2021/07/25 14:27:36;;;;;;;3.90;3.60;;;;;;;;;;5065254;28;20458;-81
2021/07/25 14:30:04;;;;;;;3.73;3.23;;;;;;;;;;5073200;28;20536;-78
2021/07/25 14:32:31;;;;;;;3.23;2.93;;;;;;;;;;5073505;28;20889;-79